sensor_id;sensor_type;location;lat;lon;timestamp;temperature;humidity
32107;DHT22;18622;51.998;10.440;2023-09-08T03:32:57;14.70;99.90
32107;DHT22;18622;51.998;10.440;2023-09-08T03:35:24;14.60;99.90
32107;DHT22;18622;51.998;10.440;2023-09-08T03:37:52;14.60;99.90
32107;DHT22;18622;51.998;10.440;2023-09-08T03:40:20;14.60;99.90
32107;DHT22;18622;51.998;10.440;2023-09-08T03:42:48;14.60;99.90
32107;DHT22;18622;51.998;10.440;2023-09-08T03:45:16;14.60;99.90
32107;DHT22;18622;51.998;10.440;2023-09-08T03:47:43;14.60;99.90
32107;DHT22;18622;51.998;10.440;2023-09-08T03:50:12;14.50;99.90
32107;DHT22;18622;51.998;10.440;2023-09-08T03:52:39;14.50;99.90
32107;DHT22;18622;51.998;10.440;2023-09-08T03:55:07;14.50;99.90
32107;DHT22;18622;51.998;10.440;2023-09-08T03:57:35;14.50;99.90
32107;DHT22;18622;51.998;10.440;2023-09-08T04:00:03;14.50;99.90
32107;DHT22;18622;51.998;10.440;2023-09-08T04:02:33;14.50;99.90
32107;DHT22;18622;51.998;10.440;2023-09-08T04:05:01;14.40;99.90
32107;DHT22;18622;51.998;10.440;2023-09-08T04:07:28;14.40;99.90
32107;DHT22;18622;51.998;10.440;2023-09-08T04:09:56;14.40;99.90
32107;DHT22;18622;51.998;10.440;2023-09-08T04:12:24;14.40;99.90
32107;DHT22;18622;51.998;10.440;2023-09-08T04:14:52;14.40;99.90
32107;DHT22;18622;51.998;10.440;2023-09-08T04:17:20;14.40;99.90
32107;DHT22;18622;51.998;10.440;2023-09-08T04:19:47;14.40;99.90
32107;DHT22;18622;51.998;10.440;2023-09-08T04:22:15;14.40;99.90
32107;DHT22;18622;51.998;10.440;2023-09-08T04:24:43;14.40;99.90
32107;DHT22;18622;51.998;10.440;2023-09-08T04:27:11;14.40;99.90
32107;DHT22;18622;51.998;10.440;2023-09-08T04:29:39;14.40;99.90
32107;DHT22;18622;51.998;10.440;2023-09-08T04:32:07;14.30;99.90
32107;DHT22;18622;51.998;10.440;2023-09-08T04:34:38;14.30;99.90
32107;DHT22;18622;51.998;10.440;2023-09-08T04:37:06;14.30;99.90
32107;DHT22;18622;51.998;10.440;2023-09-08T04:39:34;14.30;99.90
32107;DHT22;18622;51.998;10.440;2023-09-08T04:42:02;14.30;99.90
32107;DHT22;18622;51.998;10.440;2023-09-08T04:44:30;14.30;99.90
32107;DHT22;18622;51.998;10.440;2023-09-08T04:46:57;14.20;99.90
32107;DHT22;18622;51.998;10.440;2023-09-08T04:49:26;14.20;99.90
32107;DHT22;18622;51.998;10.440;2023-09-08T04:51:55;14.20;99.90
32107;DHT22;18622;51.998;10.440;2023-09-08T04:54:23;14.20;99.90
32107;DHT22;18622;51.998;10.440;2023-09-08T04:56:53;14.20;99.90
32107;DHT22;18622;51.998;10.440;2023-09-08T04:59:21;14.30;99.90
32107;DHT22;18622;51.998;10.440;2023-09-08T05:01:50;14.30;99.90
32107;DHT22;18622;51.998;10.440;2023-09-08T05:04:18;14.30;99.90
32107;DHT22;18622;51.998;10.440;2023-09-08T05:06:45;14.30;99.90
32107;DHT22;18622;51.998;10.440;2023-09-08T05:09:13;14.30;99.90
32107;DHT22;18622;51.998;10.440;2023-09-08T05:11:41;14.30;99.90
32107;DHT22;18622;51.998;10.440;2023-09-08T05:14:09;14.40;99.90
32107;DHT22;18622;51.998;10.440;2023-09-08T05:16:37;14.40;99.90
32107;DHT22;18622;51.998;10.440;2023-09-08T05:19:15;14.40;99.90
32107;DHT22;18622;51.998;10.440;2023-09-08T05:21:43;14.40;99.90
32107;DHT22;18622;51.998;10.440;2023-09-08T05:24:11;14.50;99.90
32107;DHT22;18622;51.998;10.440;2023-09-08T05:26:40;14.50;99.90
32107;DHT22;18622;51.998;10.440;2023-09-08T05:29:08;14.60;99.90
32107;DHT22;18622;51.998;10.440;2023-09-08T05:31:36;14.60;99.90
32107;DHT22;18622;51.998;10.440;2023-09-08T05:34:04;14.70;99.90
32107;DHT22;18622;51.998;10.440;2023-09-08T05:36:32;14.80;99.90
32107;DHT22;18622;51.998;10.440;2023-09-08T05:39:01;14.80;99.90
32107;DHT22;18622;51.998;10.440;2023-09-08T05:41:29;14.90;99.90
32107;DHT22;18622;51.998;10.440;2023-09-08T05:43:58;15.00;99.90
32107;DHT22;18622;51.998;10.440;2023-09-08T05:46:26;15.10;99.90
32107;DHT22;18622;51.998;10.440;2023-09-08T05:48:54;15.10;99.90
32107;DHT22;18622;51.998;10.440;2023-09-08T05:51:21;15.20;99.90
32107;DHT22;18622;51.998;10.440;2023-09-08T05:53:50;15.20;99.90
32107;DHT22;18622;51.998;10.440;2023-09-08T05:56:19;15.20;99.90
32107;DHT22;18622;51.998;10.440;2023-09-08T05:58:46;15.30;99.90
32107;DHT22;18622;51.998;10.440;2023-09-08T06:01:15;15.40;99.90
32107;DHT22;18622;51.998;10.440;2023-09-08T06:03:43;15.40;99.90
32107;DHT22;18622;51.998;10.440;2023-09-08T06:06:11;15.60;99.90
32107;DHT22;18622;51.998;10.440;2023-09-08T06:08:38;15.60;99.90
32107;DHT22;18622;51.998;10.440;2023-09-08T06:11:06;15.70;99.90
32107;DHT22;18622;51.998;10.440;2023-09-08T06:13:34;15.80;99.90
32107;DHT22;18622;51.998;10.440;2023-09-08T06:16:02;15.90;99.90
32107;DHT22;18622;51.998;10.440;2023-09-08T06:18:30;16.00;99.90
32107;DHT22;18622;51.998;10.440;2023-09-08T06:20:58;16.00;99.90
32107;DHT22;18622;51.998;10.440;2023-09-08T06:23:26;16.10;99.90
32107;DHT22;18622;51.998;10.440;2023-09-08T06:28:32;16.30;99.90
32107;DHT22;18622;51.998;10.440;2023-09-08T06:31:00;16.40;99.90
32107;DHT22;18622;51.998;10.440;2023-09-08T06:33:28;16.60;99.90
32107;DHT22;18622;51.998;10.440;2023-09-08T06:35:55;16.70;99.90
32107;DHT22;18622;51.998;10.440;2023-09-08T06:38:23;16.90;99.90
32107;DHT22;18622;51.998;10.440;2023-09-08T06:40:51;17.00;99.90
32107;DHT22;18622;51.998;10.440;2023-09-08T06:43:20;17.20;99.90
32107;DHT22;18622;51.998;10.440;2023-09-08T06:45:49;17.30;99.90
32107;DHT22;18622;51.998;10.440;2023-09-08T06:48:16;17.40;99.90
32107;DHT22;18622;51.998;10.440;2023-09-08T06:50:44;17.50;99.90
32107;DHT22;18622;51.998;10.440;2023-09-08T06:53:12;17.60;99.90
32107;DHT22;18622;51.998;10.440;2023-09-08T06:55:40;17.70;99.90
32107;DHT22;18622;51.998;10.440;2023-09-08T06:58:08;17.90;99.90
32107;DHT22;18622;51.998;10.440;2023-09-08T07:00:35;18.00;99.90
32107;DHT22;18622;51.998;10.440;2023-09-08T07:03:03;18.20;99.90
32107;DHT22;18622;51.998;10.440;2023-09-08T07:05:32;18.30;99.90
32107;DHT22;18622;51.998;10.440;2023-09-08T07:08:00;18.50;99.90
32107;DHT22;18622;51.998;10.440;2023-09-08T07:10:28;18.70;99.90
32107;DHT22;18622;51.998;10.440;2023-09-08T07:12:55;18.80;99.90
32107;DHT22;18622;51.998;10.440;2023-09-08T07:15:23;18.90;99.90
32107;DHT22;18622;51.998;10.440;2023-09-08T07:17:51;19.00;99.90
32107;DHT22;18622;51.998;10.440;2023-09-08T07:20:19;19.20;99.90
32107;DHT22;18622;51.998;10.440;2023-09-08T07:22:47;19.40;99.90
32107;DHT22;18622;51.998;10.440;2023-09-08T07:25:14;19.60;99.90
32107;DHT22;18622;51.998;10.440;2023-09-08T07:27:42;19.70;99.90
32107;DHT22;18622;51.998;10.440;2023-09-08T07:30:10;19.70;99.90
32107;DHT22;18622;51.998;10.440;2023-09-08T07:32:38;19.80;99.90
32107;DHT22;18622;51.998;10.440;2023-09-08T07:35:06;19.90;99.90
32107;DHT22;18622;51.998;10.440;2023-09-08T07:37:35;20.00;99.90
32107;DHT22;18622;51.998;10.440;2023-09-08T07:40:04;20.10;99.90
32107;DHT22;18622;51.998;10.440;2023-09-08T07:42:32;20.10;99.90
32107;DHT22;18622;51.998;10.440;2023-09-08T07:44:59;20.20;99.90
32107;DHT22;18622;51.998;10.440;2023-09-08T07:47:27;20.20;99.90
32107;DHT22;18622;51.998;10.440;2023-09-08T07:50:15;20.30;99.90
32107;DHT22;18622;51.998;10.440;2023-09-08T07:52:26;20.40;99.90
32107;DHT22;18622;51.998;10.440;2023-09-08T07:54:53;20.50;99.90
32107;DHT22;18622;51.998;10.440;2023-09-08T07:57:21;20.70;99.90
32107;DHT22;18622;51.998;10.440;2023-09-08T07:59:49;20.80;99.90
32107;DHT22;18622;51.998;10.440;2023-09-08T08:02:17;21.00;99.90
32107;DHT22;18622;51.998;10.440;2023-09-08T08:04:45;21.10;99.90
32107;DHT22;18622;51.998;10.440;2023-09-08T08:07:12;21.30;99.90
32107;DHT22;18622;51.998;10.440;2023-09-08T08:09:40;21.50;99.90
32107;DHT22;18622;51.998;10.440;2023-09-08T08:12:08;21.60;99.90
32107;DHT22;18622;51.998;10.440;2023-09-08T08:14:36;21.70;99.90
32107;DHT22;18622;51.998;10.440;2023-09-08T08:17:04;21.90;99.90
32107;DHT22;18622;51.998;10.440;2023-09-08T08:19:31;22.10;99.90
32107;DHT22;18622;51.998;10.440;2023-09-08T08:21:59;22.30;99.90
32107;DHT22;18622;51.998;10.440;2023-09-08T08:24:27;22.50;99.90
32107;DHT22;18622;51.998;10.440;2023-09-08T08:26:55;22.60;99.90
32107;DHT22;18622;51.998;10.440;2023-09-08T08:29:23;22.80;99.90
32107;DHT22;18622;51.998;10.440;2023-09-08T08:31:50;22.90;99.90
32107;DHT22;18622;51.998;10.440;2023-09-08T08:34:18;23.10;99.90
32107;DHT22;18622;51.998;10.440;2023-09-08T08:36:46;23.20;99.90
32107;DHT22;18622;51.998;10.440;2023-09-08T08:39:14;23.30;99.90
32107;DHT22;18622;51.998;10.440;2023-09-08T08:41:42;23.50;99.90
32107;DHT22;18622;51.998;10.440;2023-09-08T08:44:10;23.70;99.90
32107;DHT22;18622;51.998;10.440;2023-09-08T08:46:39;23.80;99.90
32107;DHT22;18622;51.998;10.440;2023-09-08T08:49:08;23.90;99.90
32107;DHT22;18622;51.998;10.440;2023-09-08T08:51:38;24.00;99.80
32107;DHT22;18622;51.998;10.440;2023-09-08T08:54:07;24.20;99.40
32107;DHT22;18622;51.998;10.440;2023-09-08T08:56:36;24.40;99.50
32107;DHT22;18622;51.998;10.440;2023-09-08T08:59:04;24.60;99.00
32107;DHT22;18622;51.998;10.440;2023-09-08T09:01:32;24.70;98.80
32107;DHT22;18622;51.998;10.440;2023-09-08T09:04:01;24.90;98.50
32107;DHT22;18622;51.998;10.440;2023-09-08T09:06:31;25.00;98.50
32107;DHT22;18622;51.998;10.440;2023-09-08T09:08:59;25.30;98.20
32107;DHT22;18622;51.998;10.440;2023-09-08T09:11:27;25.50;97.50
32107;DHT22;18622;51.998;10.440;2023-09-08T09:13:55;25.70;97.60
32107;DHT22;18622;51.998;10.440;2023-09-08T09:16:24;26.00;96.90
32107;DHT22;18622;51.998;10.440;2023-09-08T09:18:57;26.50;96.40
32107;DHT22;18622;51.998;10.440;2023-09-08T09:21:46;26.90;95.80
32107;DHT22;18622;51.998;10.440;2023-09-08T09:24:17;27.30;94.40
32107;DHT22;18622;51.998;10.440;2023-09-08T09:26:46;27.60;94.30
32107;DHT22;18622;51.998;10.440;2023-09-08T09:29:14;27.70;94.00
32107;DHT22;18622;51.998;10.440;2023-09-08T09:31:57;27.90;93.30
32107;DHT22;18622;51.998;10.440;2023-09-08T09:34:26;28.00;93.10
32107;DHT22;18622;51.998;10.440;2023-09-08T09:36:54;28.30;92.80
32107;DHT22;18622;51.998;10.440;2023-09-08T09:39:23;28.50;92.80
32107;DHT22;18622;51.998;10.440;2023-09-08T09:41:58;28.80;91.50
32107;DHT22;18622;51.998;10.440;2023-09-08T09:44:26;29.50;90.50
32107;DHT22;18622;51.998;10.440;2023-09-08T09:46:54;30.50;89.40
32107;DHT22;18622;51.998;10.440;2023-09-08T09:49:22;31.50;86.80
32107;DHT22;18622;51.998;10.440;2023-09-08T09:51:53;32.50;79.30
32107;DHT22;18622;51.998;10.440;2023-09-08T09:54:21;33.40;74.90
32107;DHT22;18622;51.998;10.440;2023-09-08T09:56:50;34.30;68.80
32107;DHT22;18622;51.998;10.440;2023-09-08T09:59:18;34.90;66.60
32107;DHT22;18622;51.998;10.440;2023-09-08T10:01:47;35.30;66.40
32107;DHT22;18622;51.998;10.440;2023-09-08T10:04:14;35.80;63.80
32107;DHT22;18622;51.998;10.440;2023-09-08T10:06:43;36.50;60.30
32107;DHT22;18622;51.998;10.440;2023-09-08T10:09:12;36.90;59.50
32107;DHT22;18622;51.998;10.440;2023-09-08T10:11:49;37.50;58.30
32107;DHT22;18622;51.998;10.440;2023-09-08T10:14:17;38.20;52.80
32107;DHT22;18622;51.998;10.440;2023-09-08T10:16:46;38.70;51.80
32107;DHT22;18622;51.998;10.440;2023-09-08T10:19:16;39.00;49.90
32107;DHT22;18622;51.998;10.440;2023-09-08T10:21:47;39.20;49.70
32107;DHT22;18622;51.998;10.440;2023-09-08T10:24:20;39.60;45.80
32107;DHT22;18622;51.998;10.440;2023-09-08T10:27:07;39.70;47.80
32107;DHT22;18622;51.998;10.440;2023-09-08T10:29:35;39.90;45.80
32107;DHT22;18622;51.998;10.440;2023-09-08T10:32:05;40.30;45.50
32107;DHT22;18622;51.998;10.440;2023-09-08T10:34:34;40.80;45.00
32107;DHT22;18622;51.998;10.440;2023-09-08T10:37:03;41.20;43.90
32107;DHT22;18622;51.998;10.440;2023-09-08T10:39:34;41.50;42.80
32107;DHT22;18622;51.998;10.440;2023-09-08T10:42:20;41.70;42.20
32107;DHT22;18622;51.998;10.440;2023-09-08T10:44:58;42.10;41.30
32107;DHT22;18622;51.998;10.440;2023-09-08T10:50:19;42.70;41.10
32107;DHT22;18622;51.998;10.440;2023-09-08T10:55:42;43.00;40.10
32107;DHT22;18622;51.998;10.440;2023-09-08T10:58:11;43.20;40.30
32107;DHT22;18622;51.998;10.440;2023-09-08T11:00:47;43.40;39.20
32107;DHT22;18622;51.998;10.440;2023-09-08T11:04:02;43.50;39.30
32107;DHT22;18622;51.998;10.440;2023-09-08T11:05:46;43.70;38.70
32107;DHT22;18622;51.998;10.440;2023-09-08T11:08:14;43.90;39.50
32107;DHT22;18622;51.998;10.440;2023-09-08T11:10:44;44.20;38.60
32107;DHT22;18622;51.998;10.440;2023-09-08T11:13:11;44.30;38.40
32107;DHT22;18622;51.998;10.440;2023-09-08T11:15:39;44.60;38.40
32107;DHT22;18622;51.998;10.440;2023-09-08T11:18:07;44.70;36.40
32107;DHT22;18622;51.998;10.440;2023-09-08T11:20:34;44.70;36.70
32107;DHT22;18622;51.998;10.440;2023-09-08T11:23:03;44.90;36.90
32107;DHT22;18622;51.998;10.440;2023-09-08T11:25:32;45.10;36.00
32107;DHT22;18622;51.998;10.440;2023-09-08T11:28:01;45.40;36.70
32107;DHT22;18622;51.998;10.440;2023-09-08T11:30:28;45.70;35.80
32107;DHT22;18622;51.998;10.440;2023-09-08T11:32:56;45.70;36.90
32107;DHT22;18622;51.998;10.440;2023-09-08T11:35:27;45.80;36.60
32107;DHT22;18622;51.998;10.440;2023-09-08T11:37:58;45.90;36.50
32107;DHT22;18622;51.998;10.440;2023-09-08T11:40:25;46.20;36.90
32107;DHT22;18622;51.998;10.440;2023-09-08T11:42:54;46.30;35.90
32107;DHT22;18622;51.998;10.440;2023-09-08T11:45:21;46.50;35.50
32107;DHT22;18622;51.998;10.440;2023-09-08T11:47:48;46.70;35.90
32107;DHT22;18622;51.998;10.440;2023-09-08T11:50:18;46.80;36.10
32107;DHT22;18622;51.998;10.440;2023-09-08T11:52:48;47.10;36.00
32107;DHT22;18622;51.998;10.440;2023-09-08T11:55:17;47.30;35.10
32107;DHT22;18622;51.998;10.440;2023-09-08T11:57:48;47.30;35.60
32107;DHT22;18622;51.998;10.440;2023-09-08T12:00:18;47.40;35.80
32107;DHT22;18622;51.998;10.440;2023-09-08T12:02:49;47.30;35.10
32107;DHT22;18622;51.998;10.440;2023-09-08T12:05:25;47.40;34.30
32107;DHT22;18622;51.998;10.440;2023-09-08T12:07:55;47.30;34.90
32107;DHT22;18622;51.998;10.440;2023-09-08T12:10:24;47.20;35.10
32107;DHT22;18622;51.998;10.440;2023-09-08T12:12:54;47.10;35.50
32107;DHT22;18622;51.998;10.440;2023-09-08T12:15:37;47.30;34.40
32107;DHT22;18622;51.998;10.440;2023-09-08T12:18:12;47.50;34.30
32107;DHT22;18622;51.998;10.440;2023-09-08T12:20:43;47.50;34.00
32107;DHT22;18622;51.998;10.440;2023-09-08T12:23:21;47.60;34.70
32107;DHT22;18622;51.998;10.440;2023-09-08T12:25:52;47.90;34.10
32107;DHT22;18622;51.998;10.440;2023-09-08T12:28:21;47.80;33.40
32107;DHT22;18622;51.998;10.440;2023-09-08T12:30:52;47.60;34.00
32107;DHT22;18622;51.998;10.440;2023-09-08T12:33:20;47.50;34.20
32107;DHT22;18622;51.998;10.440;2023-09-08T12:35:48;47.70;33.70
32107;DHT22;18622;51.998;10.440;2023-09-08T12:38:18;47.70;34.10
32107;DHT22;18622;51.998;10.440;2023-09-08T12:40:47;48.00;33.30
32107;DHT22;18622;51.998;10.440;2023-09-08T12:43:14;48.30;33.60
32107;DHT22;18622;51.998;10.440;2023-09-08T12:45:42;48.30;33.10
32107;DHT22;18622;51.998;10.440;2023-09-08T12:48:10;48.30;33.40
32107;DHT22;18622;51.998;10.440;2023-09-08T12:50:38;48.40;34.00
32107;DHT22;18622;51.998;10.440;2023-09-08T12:53:06;48.40;33.10
32107;DHT22;18622;51.998;10.440;2023-09-08T12:55:34;48.50;33.00
32107;DHT22;18622;51.998;10.440;2023-09-08T12:58:02;48.60;33.10
32107;DHT22;18622;51.998;10.440;2023-09-08T13:00:30;48.60;32.90
32107;DHT22;18622;51.998;10.440;2023-09-08T13:02:57;48.70;33.10
32107;DHT22;18622;51.998;10.440;2023-09-08T13:05:25;48.70;32.60
32107;DHT22;18622;51.998;10.440;2023-09-08T13:07:53;48.50;32.70
32107;DHT22;18622;51.998;10.440;2023-09-08T13:10:21;48.50;32.90
32107;DHT22;18622;51.998;10.440;2023-09-08T13:12:49;48.70;32.30
32107;DHT22;18622;51.998;10.440;2023-09-08T13:15:16;48.60;32.80
32107;DHT22;18622;51.998;10.440;2023-09-08T13:17:44;48.30;32.90
32107;DHT22;18622;51.998;10.440;2023-09-08T13:20:12;48.20;32.70
32107;DHT22;18622;51.998;10.440;2023-09-08T13:22:40;48.20;32.00
32107;DHT22;18622;51.998;10.440;2023-09-08T13:25:08;48.20;32.10
32107;DHT22;18622;51.998;10.440;2023-09-08T13:27:36;48.20;32.30
32107;DHT22;18622;51.998;10.440;2023-09-08T13:30:12;48.10;32.90
32107;DHT22;18622;51.998;10.440;2023-09-08T13:32:40;47.90;32.40
32107;DHT22;18622;51.998;10.440;2023-09-08T13:35:08;48.00;32.10
32107;DHT22;18622;51.998;10.440;2023-09-08T13:37:35;48.00;32.50
32107;DHT22;18622;51.998;10.440;2023-09-08T13:40:05;47.90;32.90
32107;DHT22;18622;51.998;10.440;2023-09-08T13:42:33;48.10;32.30
32107;DHT22;18622;51.998;10.440;2023-09-08T13:45:01;48.10;32.70
32107;DHT22;18622;51.998;10.440;2023-09-08T13:47:29;48.20;33.00
32107;DHT22;18622;51.998;10.440;2023-09-08T13:49:57;48.20;32.40
32107;DHT22;18622;51.998;10.440;2023-09-08T13:52:25;48.00;31.90
32107;DHT22;18622;51.998;10.440;2023-09-08T13:54:53;47.90;32.30
32107;DHT22;18622;51.998;10.440;2023-09-08T13:57:21;47.50;33.30
32107;DHT22;18622;51.998;10.440;2023-09-08T13:59:50;47.40;33.40
32107;DHT22;18622;51.998;10.440;2023-09-08T14:02:18;47.40;33.00
32107;DHT22;18622;51.998;10.440;2023-09-08T14:04:45;47.30;33.00
32107;DHT22;18622;51.998;10.440;2023-09-08T14:07:13;47.30;33.00
32107;DHT22;18622;51.998;10.440;2023-09-08T14:09:41;47.40;33.10
32107;DHT22;18622;51.998;10.440;2023-09-08T14:12:09;47.30;33.10
32107;DHT22;18622;51.998;10.440;2023-09-08T14:14:37;47.10;33.00
32107;DHT22;18622;51.998;10.440;2023-09-08T14:17:04;47.10;32.50
32107;DHT22;18622;51.998;10.440;2023-09-08T14:19:32;46.70;34.00
32107;DHT22;18622;51.998;10.440;2023-09-08T14:22:00;46.60;33.90
32107;DHT22;18622;51.998;10.440;2023-09-08T14:24:28;46.60;34.30
32107;DHT22;18622;51.998;10.440;2023-09-08T14:26:56;46.50;33.90
32107;DHT22;18622;51.998;10.440;2023-09-08T14:29:23;46.40;34.30
32107;DHT22;18622;51.998;10.440;2023-09-08T14:31:51;46.40;34.40
32107;DHT22;18622;51.998;10.440;2023-09-08T14:34:19;46.20;34.50
32107;DHT22;18622;51.998;10.440;2023-09-08T14:36:48;46.10;34.00
32107;DHT22;18622;51.998;10.440;2023-09-08T14:39:16;45.80;34.40
32107;DHT22;18622;51.998;10.440;2023-09-08T14:41:48;45.80;35.20
32107;DHT22;18622;51.998;10.440;2023-09-08T14:44:20;45.80;35.10
32107;DHT22;18622;51.998;10.440;2023-09-08T14:46:51;45.70;34.30
32107;DHT22;18622;51.998;10.440;2023-09-08T14:49:18;45.30;35.30
32107;DHT22;18622;51.998;10.440;2023-09-08T14:51:47;44.90;35.40
32107;DHT22;18622;51.998;10.440;2023-09-08T14:54:14;44.60;35.40
32107;DHT22;18622;51.998;10.440;2023-09-08T14:56:42;44.40;36.20
32107;DHT22;18622;51.998;10.440;2023-09-08T14:59:10;44.40;35.70
32107;DHT22;18622;51.998;10.440;2023-09-08T15:01:38;44.50;36.20
32107;DHT22;18622;51.998;10.440;2023-09-08T15:04:07;44.60;36.10
32107;DHT22;18622;51.998;10.440;2023-09-08T15:06:35;44.50;36.30
32107;DHT22;18622;51.998;10.440;2023-09-08T15:09:03;44.70;36.50
32107;DHT22;18622;51.998;10.440;2023-09-08T15:11:31;44.50;35.80
32107;DHT22;18622;51.998;10.440;2023-09-08T15:13:59;44.40;36.00
32107;DHT22;18622;51.998;10.440;2023-09-08T15:16:27;44.40;36.60
32107;DHT22;18622;51.998;10.440;2023-09-08T15:18:55;44.30;36.10
32107;DHT22;18622;51.998;10.440;2023-09-08T15:21:24;44.30;36.30
32107;DHT22;18622;51.998;10.440;2023-09-08T15:23:53;44.30;36.20
32107;DHT22;18622;51.998;10.440;2023-09-08T15:26:22;44.40;35.70
32107;DHT22;18622;51.998;10.440;2023-09-08T15:28:50;44.40;36.00
32107;DHT22;18622;51.998;10.440;2023-09-08T15:31:18;44.40;35.90
32107;DHT22;18622;51.998;10.440;2023-09-08T15:33:46;44.30;35.80
32107;DHT22;18622;51.998;10.440;2023-09-08T15:36:14;44.20;35.60
32107;DHT22;18622;51.998;10.440;2023-09-08T15:38:41;44.20;35.30
32107;DHT22;18622;51.998;10.440;2023-09-08T15:41:14;44.20;36.00
32107;DHT22;18622;51.998;10.440;2023-09-08T15:43:49;44.20;35.50
32107;DHT22;18622;51.998;10.440;2023-09-08T15:46:22;44.30;35.60
32107;DHT22;18622;51.998;10.440;2023-09-08T15:48:49;44.30;35.20
32107;DHT22;18622;51.998;10.440;2023-09-08T15:51:18;44.30;35.20
32107;DHT22;18622;51.998;10.440;2023-09-08T15:53:45;44.40;35.40
32107;DHT22;18622;51.998;10.440;2023-09-08T15:56:13;44.30;35.30
32107;DHT22;18622;51.998;10.440;2023-09-08T15:58:41;44.40;35.60
32107;DHT22;18622;51.998;10.440;2023-09-08T16:01:09;44.40;36.10
32107;DHT22;18622;51.998;10.440;2023-09-08T16:03:38;44.30;34.90
32107;DHT22;18622;51.998;10.440;2023-09-08T16:06:06;44.20;35.10
32107;DHT22;18622;51.998;10.440;2023-09-08T16:08:36;43.90;35.10
32107;DHT22;18622;51.998;10.440;2023-09-08T16:11:05;43.90;35.10
32107;DHT22;18622;51.998;10.440;2023-09-08T16:13:33;43.80;35.40
32107;DHT22;18622;51.998;10.440;2023-09-08T16:16:00;43.70;35.10
32107;DHT22;18622;51.998;10.440;2023-09-08T16:18:30;43.70;35.90
32107;DHT22;18622;51.998;10.440;2023-09-08T16:20:59;43.70;35.60
32107;DHT22;18622;51.998;10.440;2023-09-08T16:23:26;43.60;35.50
32107;DHT22;18622;51.998;10.440;2023-09-08T16:25:54;43.10;35.60
32107;DHT22;18622;51.998;10.440;2023-09-08T16:28:22;41.80;36.70
32107;DHT22;18622;51.998;10.440;2023-09-08T16:30:49;40.10;38.60
32107;DHT22;18622;51.998;10.440;2023-09-08T16:33:18;38.60;39.80
32107;DHT22;18622;51.998;10.440;2023-09-08T16:35:45;37.20;41.50
32107;DHT22;18622;51.998;10.440;2023-09-08T16:38:13;36.10;42.50
32107;DHT22;18622;51.998;10.440;2023-09-08T16:40:41;35.00;44.20
32107;DHT22;18622;51.998;10.440;2023-09-08T16:43:10;34.20;46.00
32107;DHT22;18622;51.998;10.440;2023-09-08T16:45:37;33.40;47.20
32107;DHT22;18622;51.998;10.440;2023-09-08T16:48:05;32.60;49.60
32107;DHT22;18622;51.998;10.440;2023-09-08T16:50:33;31.90;51.10
32107;DHT22;18622;51.998;10.440;2023-09-08T16:53:01;31.20;52.90
32107;DHT22;18622;51.998;10.440;2023-09-08T16:55:29;30.50;54.40
32107;DHT22;18622;51.998;10.440;2023-09-08T16:57:57;29.90;55.40
32107;DHT22;18622;51.998;10.440;2023-09-08T17:00:25;29.30;56.40
32107;DHT22;18622;51.998;10.440;2023-09-08T17:02:53;28.70;58.10
32107;DHT22;18622;51.998;10.440;2023-09-08T17:07:58;27.90;60.00
32107;DHT22;18622;51.998;10.440;2023-09-08T17:10:25;27.40;61.10
32107;DHT22;18622;51.998;10.440;2023-09-08T17:12:53;27.10;62.20
32107;DHT22;18622;51.998;10.440;2023-09-08T17:15:21;26.70;63.20
32107;DHT22;18622;51.998;10.440;2023-09-08T17:17:49;26.40;63.60
32107;DHT22;18622;51.998;10.440;2023-09-08T17:20:17;26.10;64.70
32107;DHT22;18622;51.998;10.440;2023-09-08T19:40:19;19.80;99.90
32107;DHT22;18622;51.998;10.440;2023-09-08T19:42:47;19.70;99.90
32107;DHT22;18622;51.998;10.440;2023-09-08T19:45:15;19.70;99.90
32107;DHT22;18622;51.998;10.440;2023-09-08T19:47:44;19.70;99.90
32107;DHT22;18622;51.998;10.440;2023-09-08T19:50:11;19.60;99.90
32107;DHT22;18622;51.998;10.440;2023-09-08T19:52:39;19.60;99.90
32107;DHT22;18622;51.998;10.440;2023-09-08T19:55:08;19.50;99.90
32107;DHT22;18622;51.998;10.440;2023-09-08T19:57:38;19.50;99.90
32107;DHT22;18622;51.998;10.440;2023-09-08T20:00:07;19.40;99.90
32107;DHT22;18622;51.998;10.440;2023-09-08T20:02:41;19.40;99.90
32107;DHT22;18622;51.998;10.440;2023-09-08T20:10:35;19.20;99.90
32107;DHT22;18622;51.998;10.440;2023-09-08T20:13:04;19.20;99.90
32107;DHT22;18622;51.998;10.440;2023-09-08T20:15:32;19.10;99.90
32107;DHT22;18622;51.998;10.440;2023-09-08T20:18:00;19.00;99.90
32107;DHT22;18622;51.998;10.440;2023-09-08T20:20:29;19.00;99.90
32107;DHT22;18622;51.998;10.440;2023-09-08T20:22:57;19.00;99.90
32107;DHT22;18622;51.998;10.440;2023-09-08T20:25:26;19.00;99.90
32107;DHT22;18622;51.998;10.440;2023-09-08T20:27:54;18.90;99.90
32107;DHT22;18622;51.998;10.440;2023-09-08T20:30:22;18.80;99.90
32107;DHT22;18622;51.998;10.440;2023-09-08T20:32:50;18.80;99.90
32107;DHT22;18622;51.998;10.440;2023-09-08T20:35:18;18.70;99.90
32107;DHT22;18622;51.998;10.440;2023-09-08T20:37:46;18.70;99.90
32107;DHT22;18622;51.998;10.440;2023-09-08T20:40:14;18.60;99.90
32107;DHT22;18622;51.998;10.440;2023-09-08T20:42:43;18.60;99.90
32107;DHT22;18622;51.998;10.440;2023-09-08T20:45:11;18.60;99.90
32107;DHT22;18622;51.998;10.440;2023-09-08T20:47:41;18.60;99.90
32107;DHT22;18622;51.998;10.440;2023-09-08T20:50:09;18.60;99.90
32107;DHT22;18622;51.998;10.440;2023-09-08T20:52:37;18.60;99.90
32107;DHT22;18622;51.998;10.440;2023-09-08T20:55:05;18.60;99.90
32107;DHT22;18622;51.998;10.440;2023-09-08T20:57:33;18.60;99.90
32107;DHT22;18622;51.998;10.440;2023-09-08T21:00:01;18.70;99.90
32107;DHT22;18622;51.998;10.440;2023-09-08T21:02:30;18.70;99.90
32107;DHT22;18622;51.998;10.440;2023-09-08T21:04:58;18.70;99.90
32107;DHT22;18622;51.998;10.440;2023-09-08T21:07:26;18.80;99.90
32107;DHT22;18622;51.998;10.440;2023-09-08T21:09:54;18.70;99.90
32107;DHT22;18622;51.998;10.440;2023-09-08T21:12:22;18.70;99.90
32107;DHT22;18622;51.998;10.440;2023-09-08T21:14:50;18.70;99.90
32107;DHT22;18622;51.998;10.440;2023-09-08T21:17:18;18.60;99.90
32107;DHT22;18622;51.998;10.440;2023-09-08T21:19:45;18.60;99.90
32107;DHT22;18622;51.998;10.440;2023-09-08T21:22:13;18.50;99.90
32107;DHT22;18622;51.998;10.440;2023-09-08T21:24:41;18.50;99.90
32107;DHT22;18622;51.998;10.440;2023-09-08T21:27:09;18.40;99.90
32107;DHT22;18622;51.998;10.440;2023-09-08T21:29:37;18.40;99.90
